Napoleon, North Dakota
Current Conditions -  °F | °C
As of 2:35 PM on Thursday 29 Jan 2015 (Local Time) from K7L2 Reporting Station
Broken Clouds Broken Clouds  
Wind Chill: 21°   Ceiling: 2200
Heat Index: 30°   Visibility: 10mi
Dew Point: 23°   Wind: 12mph
Humidity: 75%   Direction: 340°NNW
Pressure: 30.45"   Gusts: NA
Location:  46.51°N, 99.77°W
Report Text: K7L2 292035Z AUTO 34010KT 10SM BKN022 M01/M05 A3045 RMK AO2
Loading
Personal Weather Stations






























Interactive Weather Map New forecast layout! Learn more

10-Day Weather Forecast

Advertisements
Track Severe Weather on mobile